Time;durP1;ratioP1;P1;durP2;ratioP2;P2;SDS_P1;SDS_P2;PMS_P1;PMS_P2;Temp;Humidity;BMP_temperature;BMP_pressure;BME280_temperature;BME280_humidity;BME280_pressure;Samples;Min_cycle;Max_cycle;Signal;HPM_P1;HPM_P2
2023/05/28 00:01:17;;;;;;;1.52;1.20;;;;;;;25.95;35.54;101960.50;5009951;28;96859;-75
2023/05/28 00:03:43;;;;;;;1.35;1.20;;;;;;;25.96;35.61;101955.84;5008500;28;96961;-75
2023/05/28 00:06:11;;;;;;;1.83;1.38;;;;;;;25.95;35.46;101959.63;5009241;28;97902;-75
2023/05/28 00:08:38;;;;;;;1.60;1.42;;;;;;;25.95;35.68;101954.13;5015554;28;100362;-75
2023/05/28 00:11:05;;;;;;;1.63;1.20;;;;;;;25.94;35.30;101950.53;5010120;28;97077;-75
2023/05/28 00:13:33;;;;;;;1.83;1.30;;;;;;;25.94;35.46;101947.75;5010316;28;97390;-75
2023/05/28 00:16:00;;;;;;;1.40;1.20;;;;;;;25.94;35.64;101946.91;5007792;28;98164;-75
2023/05/28 00:18:28;;;;;;;1.70;1.48;;;;;;;25.94;35.34;101944.16;5009507;28;97181;-75
2023/05/28 00:20:54;;;;;;;1.15;1.02;;;;;;;25.94;35.42;101945.00;5010262;28;96844;-75
2023/05/28 00:23:21;;;;;;;2.03;1.27;;;;;;;25.94;35.35;101949.66;4998264;28;96762;-75
2023/05/28 00:25:48;;;;;;;2.45;1.17;;;;;;;25.93;35.40;101951.56;5009086;28;96820;-75
2023/05/28 00:28:14;;;;;;;1.52;1.13;;;;;;;25.94;35.39;101939.50;5007154;28;97488;-75
2023/05/28 00:30:41;;;;;;;1.35;1.02;;;;;;;25.93;35.48;101947.94;5008200;28;96915;-75
2023/05/28 00:33:07;;;;;;;1.38;1.23;;;;;;;25.94;35.71;101941.41;5008225;28;97209;-75
2023/05/28 00:35:34;;;;;;;1.52;1.20;;;;;;;25.93;35.40;101942.44;5009058;28;97333;-75
2023/05/28 00:38:01;;;;;;;1.20;1.10;;;;;;;25.92;35.43;101952.59;5009687;28;96775;-75
2023/05/28 00:40:27;;;;;;;1.45;1.20;;;;;;;25.92;35.51;101941.59;5013611;28;96726;-75
2023/05/28 00:42:54;;;;;;;1.65;1.20;;;;;;;25.92;35.39;101946.25;5012451;28;97620;-75
2023/05/28 00:45:20;;;;;;;1.55;1.40;;;;;;;25.91;35.55;101948.13;5012038;28;97693;-75
2023/05/28 00:47:47;;;;;;;1.48;1.20;;;;;;;25.92;35.63;101965.50;5013471;28;97062;-75
2023/05/28 00:50:16;;;;;;;1.55;1.40;;;;;;;25.91;35.77;101958.28;5013992;28;96976;-75
2023/05/28 00:52:46;;;;;;;2.03;1.25;;;;;;;25.91;35.60;101958.28;5011262;28;97422;-75
2023/05/28 00:55:15;;;;;;;1.20;1.02;;;;;;;25.91;35.50;101958.28;5012601;28;98010;-75
2023/05/28 00:57:42;;;;;;;1.63;1.20;;;;;;;25.91;35.73;101952.78;5011319;28;99452;-75
2023/05/28 01:00:11;;;;;;;1.73;1.10;;;;;;;25.90;35.42;101951.94;5001277;28;97398;-75
2023/05/28 01:02:37;;;;;;;1.40;1.30;;;;;;;25.90;35.59;101948.31;5011896;28;96723;-75
2023/05/28 01:05:04;;;;;;;1.42;1.25;;;;;;;25.90;35.59;101951.06;5012593;28;97591;-75
2023/05/28 01:07:32;;;;;;;1.40;1.30;;;;;;;25.89;35.68;101955.72;4994125;28;100001;-75
2023/05/28 01:09:59;;;;;;;1.90;1.35;;;;;;;25.89;35.52;101947.47;4990902;28;97202;-75
2023/05/28 01:12:26;;;;;;;1.58;1.40;;;;;;;25.89;35.52;101950.22;5009588;28;97122;-75
2023/05/28 01:14:54;;;;;;;1.50;1.25;;;;;;;25.89;35.61;101958.47;5012156;28;96654;-75
2023/05/28 01:17:21;;;;;;;1.25;1.02;;;;;;;25.88;35.42;101954.00;5012187;28;97240;-75
2023/05/28 01:19:48;;;;;;;1.70;1.30;;;;;;;25.88;35.42;101947.63;5011031;28;96784;-75
2023/05/28 01:22:20;;;;;;;1.42;1.30;;;;;;;25.88;35.67;101943.00;5011058;28;96879;-75
2023/05/28 01:24:48;;;;;;;1.83;1.13;;;;;;;25.88;35.56;101942.13;5010454;28;100739;-75
2023/05/28 01:27:15;;;;;;;1.50;1.40;;;;;;;25.87;35.67;101946.78;5012428;28;97618;-75
2023/05/28 01:29:42;;;;;;;1.50;1.30;;;;;;;25.86;35.48;101945.06;5011012;28;96664;-75
2023/05/28 01:32:08;;;;;;;1.20;1.10;;;;;;;25.88;35.73;101950.41;5010213;28;97028;-75
2023/05/28 01:34:35;;;;;;;1.20;1.00;;;;;;;25.86;35.55;101947.81;5011650;28;97605;-75
2023/05/28 01:37:07;;;;;;;1.60;1.20;;;;;;;25.87;35.50;101948.69;5011072;28;98674;-75
2023/05/28 01:39:40;;;;;;;1.02;0.90;;;;;;;25.86;35.42;101953.31;5007126;28;97676;-75
2023/05/28 01:42:08;;;;;;;1.80;1.60;;;;;;;25.85;35.54;101948.88;5007528;28;96708;-75
2023/05/28 01:44:35;;;;;;;1.58;1.38;;;;;;;25.85;35.60;101954.38;5003395;28;97955;-75
2023/05/28 01:47:02;;;;;;;1.70;1.30;;;;;;;25.86;35.60;101955.22;5005115;28;100281;-75
2023/05/28 01:49:29;;;;;;;1.45;1.23;;;;;;;25.84;35.49;101960.91;5010061;28;97414;-75
2023/05/28 01:51:56;;;;;;;1.52;1.40;;;;;;;25.85;35.60;101961.75;4993067;28;97052;-75
2023/05/28 01:54:23;;;;;;;1.52;1.30;;;;;;;25.85;35.66;101959.00;5009344;28;99331;-75
2023/05/28 01:56:50;;;;;;;1.73;1.30;;;;;;;25.85;35.63;101970.88;5007773;28;99456;-75
2023/05/28 01:59:16;;;;;;;1.60;1.20;;;;;;;25.84;35.43;101971.06;5006553;28;96877;-75
2023/05/28 02:01:43;;;;;;;1.40;1.30;;;;;;;25.84;35.67;101963.66;5009914;28;96735;-75
2023/05/28 02:04:11;;;;;;;1.60;1.48;;;;;;;25.84;35.70;101952.66;5008744;28;99146;-75
2023/05/28 02:06:40;;;;;;;1.55;1.15;;;;;;;25.84;35.74;101952.66;5008238;28;98995;-75
2023/05/28 02:09:07;;;;;;;2.83;1.42;;;;;;;25.84;35.46;101946.28;5004039;28;97294;-75
2023/05/28 02:11:33;;;;;;;1.30;1.13;;;;;;;25.82;35.47;101940.97;5010761;28;97233;-75
2023/05/28 02:14:01;;;;;;;1.95;1.20;;;;;;;25.83;35.70;101944.56;5008528;28;100401;-75
2023/05/28 02:16:28;;;;;;;1.40;1.30;;;;;;;25.83;35.78;101944.56;5009460;28;100510;-75
2023/05/28 02:18:55;;;;;;;1.63;1.30;;;;;;;25.83;35.80;101941.81;5008384;28;96735;-75
2023/05/28 02:21:23;;;;;;;1.73;1.40;;;;;;;25.82;35.22;101940.97;5005853;28;96819;-75
2023/05/28 02:23:50;;;;;;;1.90;1.25;;;;;;;25.82;35.57;101934.59;5009882;28;97755;-75
2023/05/28 02:26:17;;;;;;;2.00;1.35;;;;;;;25.83;35.70;101930.81;5009064;28;97716;-75
2023/05/28 02:28:45;;;;;;;1.92;1.40;;;;;;;25.81;35.75;101927.41;5010967;28;97080;-75
2023/05/28 02:31:13;;;;;;;1.70;1.35;;;;;;;25.81;35.75;101931.00;4992568;28;96992;-75
2023/05/28 02:33:43;;;;;;;1.40;1.20;;;;;;;25.80;35.56;101932.03;5009039;28;97373;-75
2023/05/28 02:36:13;;;;;;;1.48;1.15;;;;;;;25.81;35.53;101922.75;5008816;28;97318;-75
2023/05/28 02:38:41;;;;;;;1.33;1.20;;;;;;;25.80;35.71;101928.44;5007632;28;96695;-75
2023/05/28 02:41:09;;;;;;;1.73;1.33;;;;;;;25.80;35.59;101929.28;5007443;28;97179;-75
2023/05/28 02:43:40;;;;;;;1.58;1.20;;;;;;;25.80;35.67;101925.69;5008268;28;100524;-75
2023/05/28 02:46:09;;;;;;;1.58;1.23;;;;;;;25.79;35.60;101921.22;5005669;28;100585;-75
2023/05/28 02:48:36;;;;;;;1.40;1.05;;;;;;;25.79;35.74;101918.47;5023567;28;96788;-76
2023/05/28 02:51:04;;;;;;;2.00;1.52;;;;;;;25.79;35.78;101923.97;5003314;28;96642;-75
2023/05/28 02:54:03;;;;;;;1.42;1.30;;;;;;;25.77;35.83;101928.81;4963352;28;97926;-75
2023/05/28 02:56:30;;;;;;;1.75;1.30;;;;;;;25.78;35.94;101936.00;5006131;28;96681;-75
2023/05/28 02:58:57;;;;;;;1.65;1.20;;;;;;;25.78;35.76;101930.50;5008929;28;98003;-75
2023/05/28 03:01:23;;;;;;;1.55;1.30;;;;;;;25.77;36.16;101932.41;5010051;28;96868;-75
2023/05/28 03:03:50;;;;;;;2.17;1.35;;;;;;;25.77;35.55;101926.91;5008870;28;100599;-75
2023/05/28 03:06:17;;;;;;;1.10;1.00;;;;;;;25.76;35.73;101936.19;4992475;28;100408;-75
2023/05/28 03:08:50;;;;;;;1.67;1.23;;;;;;;25.76;35.54;101941.69;5003488;28;97450;-75
2023/05/28 03:11:16;;;;;;;1.35;1.10;;;;;;;25.76;35.84;101944.44;5008776;28;97237;-75
2023/05/28 03:13:43;;;;;;;1.70;1.38;;;;;;;25.76;35.73;101943.59;5007144;28;99653;-75
2023/05/28 03:16:10;;;;;;;1.42;1.33;;;;;;;25.76;35.78;101947.19;5008299;28;100444;-75
2023/05/28 03:18:37;;;;;;;1.33;1.23;;;;;;;25.75;35.52;101942.75;5000468;28;98027;-75
2023/05/28 03:21:05;;;;;;;2.15;1.52;;;;;;;25.75;35.58;101945.50;4991035;28;97154;-75
2023/05/28 03:23:32;;;;;;;1.63;1.52;;;;;;;25.76;35.87;101943.59;5006879;28;97682;-75
2023/05/28 03:26:18;;;;;;;1.60;1.40;;;;;;;25.74;35.82;101937.41;5002464;28;99240;-75
2023/05/28 03:28:44;;;;;;;2.65;1.63;;;;;;;25.74;35.66;101946.53;5009061;28;97033;-75
2023/05/28 03:31:30;;;;;;;1.50;1.20;;;;;;;25.73;35.95;101938.47;5003620;28;97580;-75
2023/05/28 03:33:58;;;;;;;1.20;1.10;;;;;;;25.72;35.72;101934.84;5007334;28;99361;-75
2023/05/28 03:36:25;;;;;;;2.15;1.48;;;;;;;25.73;35.41;101939.31;5005398;28;97243;-75
2023/05/28 03:38:52;;;;;;;1.65;1.40;;;;;;;25.73;35.72;101939.31;5008834;28;96708;-75
2023/05/28 03:41:21;;;;;;;1.85;1.30;;;;;;;25.73;35.88;101933.81;5005867;28;96876;-75
2023/05/28 03:43:48;;;;;;;1.45;1.33;;;;;;;25.73;35.54;101939.31;5000820;28;99301;-75
2023/05/28 03:46:15;;;;;;;1.30;1.20;;;;;;;25.73;35.89;101943.97;5007530;28;100513;-75
2023/05/28 03:48:42;;;;;;;2.03;1.50;;;;;;;25.72;35.86;101934.84;5008023;28;96786;-75
2023/05/28 03:51:09;;;;;;;1.30;1.20;;;;;;;25.73;35.63;101938.47;5021931;28;96959;-75
2023/05/28 03:53:37;;;;;;;1.88;1.20;;;;;;;25.72;35.61;101942.25;4989922;28;98865;-75
2023/05/28 03:56:03;;;;;;;1.48;1.30;;;;;;;25.72;35.73;101945.00;4982203;28;100480;-75
2023/05/28 03:58:30;;;;;;;1.30;1.00;;;;;;;25.72;35.95;101943.09;5007312;28;96826;-75
2023/05/28 04:00:59;;;;;;;1.45;1.30;;;;;;;25.72;35.83;101939.50;5007876;28;96682;-75
2023/05/28 04:03:26;;;;;;;1.48;1.00;;;;;;;25.72;35.83;101937.59;4989866;28;100776;-75
2023/05/28 04:05:53;;;;;;;1.65;1.27;;;;;;;25.71;35.81;101941.38;5007428;28;100434;-75
2023/05/28 04:08:21;;;;;;;1.20;1.00;;;;;;;25.71;35.87;101949.66;5006434;28;97447;-75
2023/05/28 04:10:48;;;;;;;1.27;0.98;;;;;;;25.71;35.65;101944.16;4988095;28;96714;-75
2023/05/28 04:13:17;;;;;;;1.42;1.30;;;;;;;25.71;35.81;101944.16;5006983;28;99628;-75
2023/05/28 04:15:44;;;;;;;1.77;1.20;;;;;;;25.71;35.69;101941.38;5007041;28;99825;-75
2023/05/28 04:18:10;;;;;;;2.15;1.30;;;;;;;25.71;35.89;101940.53;5007427;28;96744;-75
2023/05/28 04:20:37;;;;;;;1.67;1.15;;;;;;;25.72;35.88;101950.50;5004238;28;96886;-75
2023/05/28 04:23:04;;;;;;;1.33;1.10;;;;;;;25.70;35.62;101950.69;5006924;28;100354;-75
2023/05/28 04:25:31;;;;;;;1.67;1.33;;;;;;;25.71;35.77;101966.16;5007420;28;99431;-75
2023/05/28 04:28:00;;;;;;;1.50;1.30;;;;;;;25.70;35.92;101961.69;5009000;28;96955;-75
2023/05/28 04:30:27;;;;;;;1.77;1.20;;;;;;;25.71;35.90;101966.16;5007090;28;97065;-75
2023/05/28 04:32:55;;;;;;;1.67;1.23;;;;;;;25.70;35.91;101963.59;5001090;28;100014;-75
2023/05/28 04:35:22;;;;;;;1.67;1.30;;;;;;;25.71;35.72;101957.03;5006618;28;97475;-75
2023/05/28 04:37:50;;;;;;;1.25;1.10;;;;;;;25.70;35.79;101961.69;5004282;28;97005;-75
2023/05/28 04:40:18;;;;;;;1.77;1.40;;;;;;;25.70;35.85;101964.44;5007272;28;96615;-75
2023/05/28 04:42:47;;;;;;;1.30;1.10;;;;;;;25.70;35.58;101969.94;5006881;28;100037;-75
2023/05/28 04:45:14;;;;;;;1.40;1.20;;;;;;;25.70;35.50;101967.19;4990120;28;100486;-75
2023/05/28 04:47:43;;;;;;;1.20;1.00;;;;;;;25.70;35.73;101967.19;5007083;28;97150;-75
2023/05/28 04:50:10;;;;;;;1.40;1.30;;;;;;;25.70;35.97;101969.09;4997453;28;97538;-75
2023/05/28 04:52:37;;;;;;;1.48;1.23;;;;;;;25.70;35.77;101963.59;5007581;28;97131;-75
2023/05/28 04:55:04;;;;;;;1.20;1.10;;;;;;;25.70;35.77;101960.84;5008047;28;97356;-75
2023/05/28 04:57:32;;;;;;;1.42;1.27;;;;;;;25.69;35.78;101965.47;4990677;28;96672;-75
2023/05/28 05:00:01;;;;;;;1.40;1.00;;;;;;;25.69;35.78;101965.47;5007313;28;97200;-75
2023/05/28 05:02:28;;;;;;;1.10;1.00;;;;;;;25.70;35.95;101974.59;5006740;28;99135;-75
2023/05/28 05:04:56;;;;;;;1.20;1.10;;;;;;;25.69;36.01;101976.47;5007759;28;97964;-75
2023/05/28 05:07:23;;;;;;;1.25;1.00;;;;;;;25.69;35.75;101979.25;4990756;28;96758;-75
2023/05/28 05:09:50;;;;;;;1.65;1.20;;;;;;;25.70;35.87;101974.59;5004971;28;96867;-75
2023/05/28 05:12:17;;;;;;;1.55;1.25;;;;;;;25.69;35.36;101976.47;5008063;28;97926;-75
2023/05/28 05:14:43;;;;;;;1.55;1.20;;;;;;;25.69;35.80;101976.47;5006016;28;100796;-75
2023/05/28 05:17:10;;;;;;;1.60;1.10;;;;;;;25.69;35.68;101976.47;5019885;28;96790;-75
2023/05/28 05:19:37;;;;;;;1.92;1.40;;;;;;;25.69;35.90;101978.38;4990214;28;97129;-75
2023/05/28 05:22:04;;;;;;;1.75;1.45;;;;;;;25.69;35.66;101970.97;5007809;28;96970;-75
2023/05/28 05:24:31;;;;;;;1.20;1.10;;;;;;;25.70;35.91;101977.34;5021916;27;99255;-75
2023/05/28 05:26:58;;;;;;;1.23;0.95;;;;;;;25.69;35.85;101982.00;5009071;28;96812;-75
2023/05/28 05:29:25;;;;;;;1.15;1.05;;;;;;;25.69;35.80;101976.47;5002393;28;97496;-75
2023/05/28 05:31:51;;;;;;;1.42;1.15;;;;;;;25.71;35.80;101979.06;5010828;28;97148;-75
2023/05/28 05:34:18;;;;;;;1.00;0.90;;;;;;;25.71;35.60;101984.56;5009894;28;100295;-75
2023/05/28 05:37:04;;;;;;;1.52;1.10;;;;;;;25.67;35.73;101984.06;5002931;28;97482;-75
2023/05/28 05:39:39;;;;;;;2.25;1.10;;;;;;;25.69;35.63;101986.63;5008595;28;97042;-74
2023/05/28 05:42:23;;;;;;;1.30;1.20;;;;;;;25.67;35.87;101989.56;5009201;28;97019;-75
2023/05/28 05:44:53;;;;;;;1.63;1.30;;;;;;;25.68;35.92;101988.53;5006770;28;100029;-75
2023/05/28 05:47:20;;;;;;;1.35;1.00;;;;;;;25.69;35.74;101994.88;5006900;28;96818;-75
2023/05/28 05:49:47;;;;;;;1.67;1.10;;;;;;;25.68;35.84;101991.28;5007970;28;97529;-75
2023/05/28 05:52:15;;;;;;;1.55;1.20;;;;;;;25.69;36.15;101995.75;4990312;28;100203;-75
2023/05/28 05:54:42;;;;;;;1.88;1.20;;;;;;;25.69;35.91;101994.88;5005743;28;97283;-75
2023/05/28 05:57:09;;;;;;;1.42;1.13;;;;;;;25.70;35.99;101993.84;5009508;28;97009;-75
2023/05/28 05:59:38;;;;;;;1.48;1.10;;;;;;;25.69;35.60;101995.75;5009601;28;97019;-75
2023/05/28 06:02:05;;;;;;;1.48;1.30;;;;;;;25.70;36.19;101999.34;5005799;28;99736;-75
2023/05/28 06:04:33;;;;;;;1.20;1.10;;;;;;;25.69;35.67;102001.25;5008866;28;96771;-75
2023/05/28 06:07:12;;;;;;;1.52;1.13;;;;;;;25.69;35.95;102001.25;4998699;28;97287;-75
2023/05/28 06:10:07;;;;;;;1.42;1.05;;;;;;;25.67;35.98;101996.97;5007887;28;96866;-75
2023/05/28 06:12:36;;;;;;;1.20;1.00;;;;;;;25.69;35.85;101997.63;5009214;28;97757;-75
2023/05/28 06:15:03;;;;;;;1.60;1.25;;;;;;;25.69;35.58;101997.63;5008806;28;100207;-75
2023/05/28 06:17:31;;;;;;;1.25;1.10;;;;;;;25.70;35.79;101997.47;4991154;28;96831;-75
2023/05/28 06:20:04;;;;;;;1.63;1.20;;;;;;;25.71;35.54;101998.31;5009696;28;96943;-75
2023/05/28 06:22:31;;;;;;;1.25;1.10;;;;;;;25.70;35.66;101994.72;4999748;28;101477;-75
2023/05/28 06:24:58;;;;;;;1.58;1.10;;;;;;;25.70;35.84;101991.97;5008425;28;99052;-75
2023/05/28 06:27:25;;;;;;;2.10;1.17;;;;;;;25.70;35.67;102000.22;5008927;28;97254;-75
2023/05/28 06:29:52;;;;;;;1.15;0.90;;;;;;;25.70;35.87;101994.72;5009776;28;96901;-75
2023/05/28 06:32:19;;;;;;;1.15;1.00;;;;;;;25.71;35.62;101995.56;5007960;28;99357;-74
2023/05/28 06:34:45;;;;;;;1.60;1.00;;;;;;;25.71;35.74;101996.41;5011359;28;97217;-75
2023/05/28 06:37:13;;;;;;;1.38;1.10;;;;;;;25.71;35.81;101996.41;5009474;28;96758;-74
2023/05/28 06:39:40;;;;;;;1.70;1.38;;;;;;;25.71;35.53;101993.66;5010087;28;97273;-75
2023/05/28 06:42:07;;;;;;;1.30;1.20;;;;;;;25.71;35.80;101996.41;5009348;28;99056;-75
2023/05/28 06:44:59;;;;;;;1.63;1.48;;;;;;;25.71;35.61;101998.31;4998944;28;98320;-75
2023/05/28 06:47:26;;;;;;;1.20;1.10;;;;;;;25.70;36.01;101997.47;5009101;28;96853;-75
2023/05/28 06:49:53;;;;;;;2.35;1.02;;;;;;;25.72;35.74;101998.13;5009637;28;96858;-75
2023/05/28 06:52:19;;;;;;;1.23;1.00;;;;;;;25.72;35.55;101997.28;5009331;28;96875;-75
2023/05/28 06:54:47;;;;;;;1.25;0.93;;;;;;;25.73;35.79;101999.00;5008537;28;96777;-75
2023/05/28 06:57:14;;;;;;;1.15;1.05;;;;;;;25.72;35.79;102009.16;5009342;28;96680;-75
2023/05/28 07:00:09;;;;;;;1.33;0.80;;;;;;;25.71;35.86;101990.91;5009577;28;97347;-75
2023/05/28 07:02:45;;;;;;;1.33;1.10;;;;;;;25.71;35.77;101998.31;5009516;28;97676;-75
2023/05/28 07:05:30;;;;;;;1.35;1.10;;;;;;;25.70;35.49;101997.47;4995255;28;97199;-75
2023/05/28 07:07:57;;;;;;;1.48;1.10;;;;;;;25.71;35.65;101998.31;5009571;28;97040;-75
2023/05/28 07:10:23;;;;;;;1.48;1.10;;;;;;;25.72;35.50;101997.28;5010613;28;96933;-75
2023/05/28 07:12:50;;;;;;;1.48;0.95;;;;;;;25.72;35.84;102000.03;5011249;28;97427;-75
2023/05/28 07:15:17;;;;;;;1.52;1.08;;;;;;;25.73;35.59;102001.75;5008992;28;96864;-75
2023/05/28 07:17:44;;;;;;;1.20;1.10;;;;;;;25.72;35.95;101998.13;5008884;28;97089;-75
2023/05/28 07:20:11;;;;;;;1.13;1.02;;;;;;;25.72;35.65;101998.13;5011017;28;96822;-75
2023/05/28 07:22:48;;;;;;;1.00;0.90;;;;;;;25.72;35.86;102003.63;5008677;28;100857;-75
2023/05/28 07:25:14;;;;;;;1.20;1.00;;;;;;;25.72;35.63;102011.91;5009462;28;97632;-75
2023/05/28 07:27:41;;;;;;;1.20;1.10;;;;;;;25.74;35.58;102011.72;4992158;28;96710;-75
2023/05/28 07:30:08;;;;;;;1.70;1.30;;;;;;;25.73;35.74;102008.09;5009044;28;96987;-75
2023/05/28 07:32:35;;;;;;;1.70;1.20;;;;;;;25.74;35.66;102004.31;5009453;28;98455;-75
2023/05/28 07:35:02;;;;;;;1.83;0.95;;;;;;;25.74;35.64;102004.31;5008514;28;99828;-75
2023/05/28 07:37:29;;;;;;;1.00;0.80;;;;;;;25.74;35.62;102007.06;5009341;28;97309;-75
2023/05/28 07:39:56;;;;;;;1.23;0.98;;;;;;;25.75;35.71;102005.16;5009360;28;97000;-75
2023/05/28 07:42:23;;;;;;;1.45;1.20;;;;;;;25.74;35.47;102001.56;5009229;28;97199;-75
2023/05/28 07:44:59;;;;;;;1.73;1.20;;;;;;;25.75;35.65;102014.28;5008361;28;98719;-75
2023/05/28 07:47:26;;;;;;;1.33;1.00;;;;;;;25.74;35.94;102015.31;4989740;28;96950;-75
2023/05/28 07:50:18;;;;;;;1.50;1.30;;;;;;;25.74;35.35;102004.31;4989983;28;97065;-75
2023/05/28 07:53:11;;;;;;;1.42;1.08;;;;;;;25.74;35.70;102014.47;4984265;28;97901;-75
2023/05/28 07:55:39;;;;;;;1.25;1.15;;;;;;;25.73;35.61;102008.09;5008087;28;97654;-75
2023/05/28 07:58:06;;;;;;;1.20;0.93;;;;;;;25.74;35.73;102015.31;5008186;28;98093;-75
2023/05/28 08:00:36;;;;;;;1.20;1.00;;;;;;;25.75;35.63;102011.53;5008385;28;96821;-75
2023/05/28 08:03:05;;;;;;;1.20;1.10;;;;;;;25.75;35.90;102007.94;4991856;28;96870;-74
2023/05/28 08:05:38;;;;;;;1.20;1.00;;;;;;;25.75;35.71;102008.78;5008239;28;98988;-75
2023/05/28 08:08:04;;;;;;;1.17;1.08;;;;;;;25.76;35.78;102015.16;5008067;28;96838;-75
2023/05/28 08:10:32;;;;;;;1.13;0.90;;;;;;;25.76;35.52;102010.50;4998194;28;96898;-75
2023/05/28 08:12:58;;;;;;;1.20;1.00;;;;;;;25.76;35.89;102012.38;5009376;28;99547;-75
2023/05/28 08:15:25;;;;;;;1.17;1.08;;;;;;;25.77;35.79;102014.97;5000875;28;99708;-75
2023/05/28 08:17:55;;;;;;;1.10;1.00;;;;;;;25.78;35.11;102013.06;5004581;28;97306;-75
2023/05/28 08:20:23;;;;;;;1.20;1.10;;;;;;;25.76;35.51;102013.25;5008348;28;96754;-75
2023/05/28 08:23:02;;;;;;;1.10;1.00;;;;;;;25.77;35.60;102017.72;5008317;28;99622;-75
2023/05/28 08:25:29;;;;;;;1.63;1.10;;;;;;;25.78;35.48;102010.31;5007760;28;100283;-75
2023/05/28 08:28:05;;;;;;;1.20;1.10;;;;;;;25.77;35.76;102017.72;5008195;28;96929;-75
2023/05/28 08:30:31;;;;;;;1.23;0.90;;;;;;;25.78;35.76;102018.56;5008035;28;96882;-75
2023/05/28 08:33:06;;;;;;;1.35;1.10;;;;;;;25.76;35.78;102010.50;5011644;28;98981;-75
2023/05/28 08:35:33;;;;;;;1.27;1.17;;;;;;;25.79;35.70;102020.28;4997671;28;100524;-75
2023/05/28 08:38:00;;;;;;;1.20;1.08;;;;;;;25.79;35.94;102012.88;5007683;28;97826;-75
2023/05/28 08:40:53;;;;;;;1.38;1.15;;;;;;;25.79;35.68;102010.13;5008257;28;96853;-75
2023/05/28 08:43:20;;;;;;;1.33;1.00;;;;;;;25.78;35.84;102007.56;4997989;28;98042;-74
2023/05/28 08:45:51;;;;;;;1.30;1.10;;;;;;;25.78;35.60;102002.91;4997950;28;96737;-75
2023/05/28 08:48:25;;;;;;;0.93;0.82;;;;;;;25.79;35.70;102010.13;5015094;28;96975;-75
2023/05/28 08:50:52;;;;;;;1.45;1.10;;;;;;;25.78;35.53;102002.91;5016354;28;97197;-75
2023/05/28 08:53:32;;;;;;;1.23;0.90;;;;;;;25.80;35.83;102006.34;5006378;28;99002;-75
2023/05/28 08:56:01;;;;;;;1.60;1.17;;;;;;;25.81;35.64;102004.44;5001474;28;98528;-75
2023/05/28 08:58:33;;;;;;;1.30;1.20;;;;;;;25.80;35.65;102006.34;5006695;28;97160;-75
2023/05/28 09:00:59;;;;;;;1.23;1.10;;;;;;;25.80;35.59;102003.59;5011525;28;97291;-75
2023/05/28 09:03:34;;;;;;;1.40;1.10;;;;;;;25.81;35.69;101999.81;5010576;28;96786;-75
2023/05/28 09:06:07;;;;;;;1.27;1.05;;;;;;;25.81;35.65;101987.94;5010993;28;99885;-75
2023/05/28 09:08:34;;;;;;;1.33;1.10;;;;;;;25.82;35.55;101985.00;5000287;28;96834;-75
2023/05/28 09:11:20;;;;;;;1.10;0.95;;;;;;;25.82;35.59;101981.41;5010994;28;97186;-75
2023/05/28 09:13:47;;;;;;;;;;;;;;;25.76;35.37;101980.22;4994485;28;100495;-75
2023/05/28 09:16:22;;;;;;;1.55;1.30;;;;;;;25.77;35.71;101967.31;5010770;28;100346;-75
2023/05/28 09:19:02;;;;;;;1.30;1.10;;;;;;;25.79;35.68;101977.09;4995002;28;96634;-75
2023/05/28 09:21:30;;;;;;;1.10;1.00;;;;;;;25.79;35.58;101974.34;5011933;28;97271;-75
2023/05/28 09:23:59;;;;;;;1.10;0.90;;;;;;;25.81;35.62;101968.69;5010636;28;97003;-75
2023/05/28 09:26:46;;;;;;;1.33;1.05;;;;;;;25.79;35.56;101966.09;5010115;28;96837;-75
2023/05/28 09:29:24;;;;;;;1.60;1.30;;;;;;;25.80;35.68;101967.81;5009054;28;98182;-75
2023/05/28 09:32:00;;;;;;;1.30;1.10;;;;;;;25.82;35.71;101971.25;5012282;28;96758;-75
2023/05/28 09:34:27;;;;;;;1.25;1.13;;;;;;;25.82;35.45;101971.25;4994142;28;96645;-75
2023/05/28 09:37:04;;;;;;;1.30;1.10;;;;;;;25.84;35.51;101969.16;5006348;28;98279;-75
2023/05/28 09:39:32;;;;;;;1.30;1.08;;;;;;;25.82;35.52;101968.50;5012437;28;96812;-75
2023/05/28 09:42:09;;;;;;;1.30;1.10;;;;;;;25.84;35.56;101968.31;5011800;28;96933;-75
2023/05/28 09:44:38;;;;;;;0.98;0.90;;;;;;;25.84;35.45;101966.41;5011491;28;97770;-75
2023/05/28 09:47:15;;;;;;;1.05;0.90;;;;;;;25.85;35.66;101965.38;5006584;28;97509;-75
2023/05/28 09:49:46;;;;;;;1.40;1.00;;;;;;;25.85;35.50;101965.38;5004849;28;96736;-75
2023/05/28 09:52:20;;;;;;;1.33;0.90;;;;;;;25.85;35.63;101965.38;4993429;28;96979;-75
2023/05/28 09:54:51;;;;;;;1.07;0.97;;;;;;;25.85;35.52;101962.63;5013280;28;97202;-75
2023/05/28 09:57:30;;;;;;;1.20;1.10;;;;;;;25.85;35.66;101965.38;5011865;28;97934;-75
2023/05/28 10:00:00;;;;;;;1.20;1.05;;;;;;;25.86;35.62;101969.84;5010226;28;96933;-75
2023/05/28 10:02:58;;;;;;;1.17;1.00;;;;;;;25.86;35.73;101958.84;5008889;28;96518;-75
2023/05/28 10:05:30;;;;;;;1.02;0.73;;;;;;;25.86;35.66;101967.09;4999296;28;96624;-75
2023/05/28 10:07:59;;;;;;;1.25;0.85;;;;;;;25.86;35.45;101967.09;5010658;28;97503;-75
2023/05/28 10:10:28;;;;;;;1.25;1.00;;;;;;;25.87;35.53;101960.53;5010036;28;96769;-75
2023/05/28 10:12:57;;;;;;;0.90;0.82;;;;;;;25.87;35.39;101960.53;5011080;28;96890;-74
2023/05/28 10:15:24;;;;;;;0.80;0.75;;;;;;;25.88;35.47;101962.25;5010908;28;96829;-75
2023/05/28 10:17:51;;;;;;;1.02;0.80;;;;;;;25.89;35.49;101955.72;5009877;28;97966;-75
2023/05/28 10:20:18;;;;;;;1.38;1.00;;;;;;;25.90;35.59;101957.44;5011024;28;97462;-75
2023/05/28 10:22:45;;;;;;;1.38;1.00;;;;;;;25.89;35.62;101961.22;5009193;28;97144;-75
2023/05/28 10:25:12;;;;;;;1.23;1.00;;;;;;;25.90;35.56;101960.19;5010518;28;97166;-75
2023/05/28 10:27:45;;;;;;;1.40;1.20;;;;;;;25.92;35.66;101957.25;5009052;28;97153;-75
2023/05/28 10:30:15;;;;;;;1.20;1.10;;;;;;;25.91;35.46;101958.28;5009811;28;96994;-75
2023/05/28 10:32:42;;;;;;;1.02;0.93;;;;;;;25.92;35.54;101962.75;4996277;28;97484;-75
2023/05/28 10:35:12;;;;;;;1.05;0.95;;;;;;;25.93;35.62;101961.72;5009429;28;97965;-74
2023/05/28 10:37:39;;;;;;;1.00;0.80;;;;;;;25.92;35.45;101958.09;5010573;28;96891;-75
2023/05/28 10:40:08;;;;;;;1.02;0.93;;;;;;;25.94;35.51;101967.03;5010932;28;97672;-75
2023/05/28 10:42:41;;;;;;;1.15;1.05;;;;;;;25.93;35.46;101970.81;5011628;28;97468;-75
2023/05/28 10:45:12;;;;;;;1.40;1.13;;;;;;;25.93;35.36;101970.81;5008976;28;96903;-75
2023/05/28 10:47:40;;;;;;;1.35;1.10;;;;;;;25.93;35.53;101962.56;5011104;28;96912;-75
2023/05/28 10:50:12;;;;;;;1.58;1.10;;;;;;;25.94;35.50;101969.78;5009949;28;97382;-75
2023/05/28 10:53:08;;;;;;;1.08;0.90;;;;;;;25.95;35.42;101979.75;5010976;28;97399;-75
2023/05/28 10:55:50;;;;;;;1.15;0.90;;;;;;;25.94;35.57;101967.03;4987636;28;100746;-72
2023/05/28 10:58:28;;;;;;;1.52;1.10;;;;;;;25.94;35.46;101964.28;5006059;28;98701;-74
2023/05/28 11:01:03;;;;;;;1.48;1.27;;;;;;;25.94;35.41;101969.78;5004483;28;96599;-73
2023/05/28 11:03:53;;;;;;;1.00;0.90;;;;;;;25.96;35.45;101967.72;5004992;28;97389;-75
2023/05/28 11:06:20;;;;;;;1.55;1.10;;;;;;;25.94;35.48;101969.78;5004111;28;96904;-75
2023/05/28 11:08:48;;;;;;;1.25;1.02;;;;;;;25.95;35.50;101965.13;5010570;28;97931;-73
2023/05/28 11:11:17;;;;;;;1.00;0.90;;;;;;;25.95;35.56;101966.00;5010161;28;96699;-73
2023/05/28 11:13:48;;;;;;;1.10;1.00;;;;;;;25.96;35.41;101973.22;5010153;28;96886;-73
2023/05/28 11:16:17;;;;;;;1.20;1.10;;;;;;;25.97;35.47;101965.81;5011820;28;96834;-76
2023/05/28 11:19:04;;;;;;;1.13;1.02;;;;;;;25.98;35.45;101953.75;5010573;28;97323;-74
2023/05/28 11:21:32;;;;;;;1.20;1.10;;;;;;;25.97;35.57;101955.66;5010919;28;96759;-74
2023/05/28 11:24:03;;;;;;;1.20;1.00;;;;;;;25.99;35.56;101960.97;5008828;28;97351;-74
2023/05/28 11:26:33;;;;;;;1.17;1.00;;;;;;;25.98;35.49;101959.25;5009847;28;97310;-74
2023/05/28 11:29:00;;;;;;;1.50;0.82;;;;;;;25.97;35.45;101952.91;4996281;28;97236;-74
2023/05/28 11:31:28;;;;;;;1.38;1.08;;;;;;;25.98;35.52;101951.88;5009140;28;97130;-74
2023/05/28 11:33:54;;;;;;;0.93;0.82;;;;;;;26.00;35.55;101953.56;5010301;28;96949;-74
2023/05/28 11:36:21;;;;;;;1.23;1.02;;;;;;;26.00;35.55;101959.09;5009761;28;97409;-74